sensor_id;sensor_type;location;lat;lon;timestamp;pressure;altitude;pressure_sealevel;temperature;humidity
41202;BME280;26936;50.524;8.684;2023-01-19T00:01:31;98150.78;;;-0.62;97.40
41202;BME280;26936;50.524;8.684;2023-01-19T00:03:56;98146.84;;;-0.61;96.90
41202;BME280;26936;50.524;8.684;2023-01-19T00:06:22;98140.06;;;-0.56;96.93
41202;BME280;26936;50.524;8.684;2023-01-19T00:08:47;98147.50;;;-0.46;96.18
41202;BME280;26936;50.524;8.684;2023-01-19T00:11:14;98141.13;;;-0.43;96.57
41202;BME280;26936;50.524;8.684;2023-01-19T00:13:41;98153.78;;;-0.46;96.25
41202;BME280;26936;50.524;8.684;2023-01-19T00:16:13;98141.22;;;-0.54;96.86
41202;BME280;26936;50.524;8.684;2023-01-19T00:18:41;98145.56;;;-0.49;96.77
41202;BME280;26936;50.524;8.684;2023-01-19T00:21:06;98148.75;;;-0.54;96.99
41202;BME280;26936;50.524;8.684;2023-01-19T00:23:31;98154.19;;;-0.47;97.14
41202;BME280;26936;50.524;8.684;2023-01-19T00:25:57;98149.47;;;-0.47;96.75
41202;BME280;26936;50.524;8.684;2023-01-19T00:28:22;98145.19;;;-0.55;97.31
41202;BME280;26936;50.524;8.684;2023-01-19T00:30:49;98151.09;;;-0.49;97.19
41202;BME280;26936;50.524;8.684;2023-01-19T00:33:14;98157.09;;;-0.61;97.59
41202;BME280;26936;50.524;8.684;2023-01-19T00:35:40;98156.72;;;-0.63;97.89
41202;BME280;26936;50.524;8.684;2023-01-19T00:38:09;98163.44;;;-0.61;97.86
41202;BME280;26936;50.524;8.684;2023-01-19T00:40:35;98169.69;;;-0.57;97.67
41202;BME280;26936;50.524;8.684;2023-01-19T00:43:00;98170.94;;;-0.65;97.55
41202;BME280;26936;50.524;8.684;2023-01-19T00:45:27;98166.16;;;-0.57;97.42
41202;BME280;26936;50.524;8.684;2023-01-19T00:47:52;98171.63;;;-0.50;97.12
41202;BME280;26936;50.524;8.684;2023-01-19T00:50:21;98171.91;;;-0.38;96.48
41202;BME280;26936;50.524;8.684;2023-01-19T00:52:47;98176.25;;;-0.37;96.27
41202;BME280;26936;50.524;8.684;2023-01-19T00:55:14;98179.28;;;-0.72;96.73
41202;BME280;26936;50.524;8.684;2023-01-19T00:57:40;98175.69;;;-0.65;96.36
41202;BME280;26936;50.524;8.684;2023-01-19T01:00:09;98169.28;;;-0.55;95.29
41202;BME280;26936;50.524;8.684;2023-01-19T01:02:36;98172.81;;;-0.51;95.46
41202;BME280;26936;50.524;8.684;2023-01-19T01:05:01;98182.53;;;-0.80;96.25
41202;BME280;26936;50.524;8.684;2023-01-19T01:07:28;98184.91;;;-0.82;96.77
41202;BME280;26936;50.524;8.684;2023-01-19T01:09:54;98187.28;;;-0.81;96.98
41202;BME280;26936;50.524;8.684;2023-01-19T01:12:21;98188.81;;;-1.31;97.62
41202;BME280;26936;50.524;8.684;2023-01-19T01:14:46;98188.06;;;-1.42;99.48
41202;BME280;26936;50.524;8.684;2023-01-19T01:17:11;98194.44;;;-1.52;100.00
41202;BME280;26936;50.524;8.684;2023-01-19T01:19:38;98189.75;;;-1.62;100.00
41202;BME280;26936;50.524;8.684;2023-01-19T01:22:04;98195.59;;;-1.50;100.00
41202;BME280;26936;50.524;8.684;2023-01-19T01:24:30;98193.53;;;-1.35;100.00
41202;BME280;26936;50.524;8.684;2023-01-19T01:26:55;98202.25;;;-1.40;100.00
41202;BME280;26936;50.524;8.684;2023-01-19T01:29:20;98196.31;;;-1.39;100.00
41202;BME280;26936;50.524;8.684;2023-01-19T01:31:45;98199.47;;;-1.37;100.00
41202;BME280;26936;50.524;8.684;2023-01-19T01:34:11;98206.50;;;-1.21;100.00
41202;BME280;26936;50.524;8.684;2023-01-19T01:36:36;98205.41;;;-1.38;100.00
41202;BME280;26936;50.524;8.684;2023-01-19T01:39:02;98203.75;;;-1.25;100.00
41202;BME280;26936;50.524;8.684;2023-01-19T01:41:27;98204.94;;;-1.26;100.00
41202;BME280;26936;50.524;8.684;2023-01-19T01:43:54;98201.44;;;-1.37;100.00
41202;BME280;26936;50.524;8.684;2023-01-19T01:46:25;98205.00;;;-1.37;100.00
41202;BME280;26936;50.524;8.684;2023-01-19T01:51:28;98214.88;;;-1.39;100.00
41202;BME280;26936;50.524;8.684;2023-01-19T01:56:32;98212.06;;;-1.28;100.00
41202;BME280;26936;50.524;8.684;2023-01-19T01:58:58;98207.34;;;-1.35;100.00
41202;BME280;26936;50.524;8.684;2023-01-19T02:01:26;98198.66;;;-1.33;100.00
41202;BME280;26936;50.524;8.684;2023-01-19T02:04:10;98193.91;;;-1.26;100.00
41202;BME280;26936;50.524;8.684;2023-01-19T02:06:36;98204.13;;;-1.19;100.00
41202;BME280;26936;50.524;8.684;2023-01-19T02:09:20;98202.59;;;-1.27;100.00
41202;BME280;26936;50.524;8.684;2023-01-19T02:12:05;98198.13;;;-1.11;100.00
41202;BME280;26936;50.524;8.684;2023-01-19T02:14:49;98194.72;;;-1.29;100.00
41202;BME280;26936;50.524;8.684;2023-01-19T02:17:14;98197.81;;;-1.23;100.00
41202;BME280;26936;50.524;8.684;2023-01-19T02:19:41;98197.69;;;-1.02;100.00
41202;BME280;26936;50.524;8.684;2023-01-19T02:22:16;98194.94;;;-1.06;100.00
41202;BME280;26936;50.524;8.684;2023-01-19T02:24:43;98198.13;;;-1.11;100.00
41202;BME280;26936;50.524;8.684;2023-01-19T02:27:08;98201.66;;;-1.07;100.00
41202;BME280;26936;50.524;8.684;2023-01-19T02:29:35;98191.75;;;-1.01;100.00
41202;BME280;26936;50.524;8.684;2023-01-19T02:32:00;98206.69;;;-0.91;100.00
41202;BME280;26936;50.524;8.684;2023-01-19T02:34:27;98202.00;;;-0.98;100.00
41202;BME280;26936;50.524;8.684;2023-01-19T02:37:07;98202.66;;;-0.80;100.00
41202;BME280;26936;50.524;8.684;2023-01-19T02:39:38;98203.56;;;-0.93;100.00
41202;BME280;26936;50.524;8.684;2023-01-19T02:42:09;98192.41;;;-0.79;100.00
41202;BME280;26936;50.524;8.684;2023-01-19T02:44:37;98194.91;;;-0.99;100.00
41202;BME280;26936;50.524;8.684;2023-01-19T02:47:03;98195.72;;;-1.02;100.00
41202;BME280;26936;50.524;8.684;2023-01-19T02:49:29;98186.19;;;-0.94;100.00
41202;BME280;26936;50.524;8.684;2023-01-19T02:51:56;98191.44;;;-1.13;100.00
41202;BME280;26936;50.524;8.684;2023-01-19T03:04:45;98196.13;;;-1.03;100.00
41202;BME280;26936;50.524;8.684;2023-01-19T03:07:20;98193.00;;;-1.09;100.00
41202;BME280;26936;50.524;8.684;2023-01-19T03:12:40;98192.66;;;-1.18;100.00
41202;BME280;26936;50.524;8.684;2023-01-19T03:15:18;98194.63;;;-1.18;100.00
41202;BME280;26936;50.524;8.684;2023-01-19T03:17:47;98192.25;;;-1.13;100.00
41202;BME280;26936;50.524;8.684;2023-01-19T03:20:15;98183.16;;;-1.13;100.00
41202;BME280;26936;50.524;8.684;2023-01-19T03:22:43;98189.53;;;-1.23;100.00
41202;BME280;26936;50.524;8.684;2023-01-19T03:25:10;98178.44;;;-1.16;100.00
41202;BME280;26936;50.524;8.684;2023-01-19T03:27:38;98184.81;;;-1.26;100.00
41202;BME280;26936;50.524;8.684;2023-01-19T03:30:12;98168.28;;;-1.33;100.00
41202;BME280;26936;50.524;8.684;2023-01-19T03:32:46;98174.16;;;-1.24;100.00
41202;BME280;26936;50.524;8.684;2023-01-19T03:35:13;98173.78;;;-1.26;100.00
41202;BME280;26936;50.524;8.684;2023-01-19T03:37:43;98169.78;;;-1.18;100.00
41202;BME280;26936;50.524;8.684;2023-01-19T03:40:09;98172.94;;;-1.16;100.00
41202;BME280;26936;50.524;8.684;2023-01-19T03:42:36;98172.16;;;-1.20;100.00
41202;BME280;26936;50.524;8.684;2023-01-19T03:45:02;98171.78;;;-1.22;100.00
41202;BME280;26936;50.524;8.684;2023-01-19T03:47:28;98169.75;;;-1.11;100.00
41202;BME280;26936;50.524;8.684;2023-01-19T03:49:55;98170.13;;;-1.09;100.00
41202;BME280;26936;50.524;8.684;2023-01-19T03:52:28;98175.19;;;-1.01;100.00
41202;BME280;26936;50.524;8.684;2023-01-19T03:54:54;98179.59;;;-1.14;100.00
41202;BME280;26936;50.524;8.684;2023-01-19T03:57:20;98180.03;;;-1.19;100.00
41202;BME280;26936;50.524;8.684;2023-01-19T03:59:46;98183.31;;;-1.38;100.00
41202;BME280;26936;50.524;8.684;2023-01-19T04:02:12;98184.53;;;-1.46;100.00
41202;BME280;26936;50.524;8.684;2023-01-19T04:04:37;98180.66;;;-1.63;100.00
41202;BME280;26936;50.524;8.684;2023-01-19T04:07:02;98179.94;;;-1.74;100.00
41202;BME280;26936;50.524;8.684;2023-01-19T04:09:28;98177.59;;;-1.82;100.00
41202;BME280;26936;50.524;8.684;2023-01-19T04:11:53;98188.66;;;-1.89;100.00
41202;BME280;26936;50.524;8.684;2023-01-19T04:14:18;98186.69;;;-1.89;100.00
41202;BME280;26936;50.524;8.684;2023-01-19T04:16:43;98189.81;;;-1.80;100.00
41202;BME280;26936;50.524;8.684;2023-01-19T04:19:09;98186.22;;;-1.70;100.00
41202;BME280;26936;50.524;8.684;2023-01-19T04:21:34;98184.25;;;-1.76;100.00
41202;BME280;26936;50.524;8.684;2023-01-19T04:23:59;98189.34;;;-1.68;100.00
41202;BME280;26936;50.524;8.684;2023-01-19T04:26:25;98182.28;;;-1.72;100.00
41202;BME280;26936;50.524;8.684;2023-01-19T04:28:50;98188.66;;;-1.89;100.00
41202;BME280;26936;50.524;8.684;2023-01-19T04:31:15;98194.94;;;-1.82;100.00
41202;BME280;26936;50.524;8.684;2023-01-19T04:33:41;98189.03;;;-1.87;100.00
41202;BME280;26936;50.524;8.684;2023-01-19T04:36:06;98190.63;;;-1.90;100.00
41202;BME280;26936;50.524;8.684;2023-01-19T04:38:32;98191.81;;;-1.91;100.00
41202;BME280;26936;50.524;8.684;2023-01-19T04:40:57;98182.72;;;-1.84;100.00
41202;BME280;26936;50.524;8.684;2023-01-19T04:43:23;98180.41;;;-1.93;100.00
41202;BME280;26936;50.524;8.684;2023-01-19T04:45:48;98187.53;;;-2.06;100.00
41202;BME280;26936;50.524;8.684;2023-01-19T04:48:15;98185.19;;;-2.14;100.00
41202;BME280;26936;50.524;8.684;2023-01-19T04:50:42;98189.56;;;-2.24;100.00
41202;BME280;26936;50.524;8.684;2023-01-19T04:53:07;98191.91;;;-2.36;100.00
41202;BME280;26936;50.524;8.684;2023-01-19T04:55:33;98188.00;;;-2.42;100.00
41202;BME280;26936;50.524;8.684;2023-01-19T04:57:59;98176.94;;;-2.28;100.00
41202;BME280;26936;50.524;8.684;2023-01-19T05:00:24;98181.28;;;-2.34;100.00
41202;BME280;26936;50.524;8.684;2023-01-19T05:02:51;98187.19;;;-2.29;100.00
41202;BME280;26936;50.524;8.684;2023-01-19T05:05:16;98190.38;;;-2.51;100.00
41202;BME280;26936;50.524;8.684;2023-01-19T05:07:42;98188.41;;;-2.44;100.00
41202;BME280;26936;50.524;8.684;2023-01-19T05:10:08;98201.78;;;-2.32;100.00
41202;BME280;26936;50.524;8.684;2023-01-19T05:12:34;98195.84;;;-2.23;100.00
41202;BME280;26936;50.524;8.684;2023-01-19T05:15:00;98196.97;;;-2.10;100.00
41202;BME280;26936;50.524;8.684;2023-01-19T05:17:25;98199.72;;;-2.03;100.00
41202;BME280;26936;50.524;8.684;2023-01-19T05:19:51;98198.97;;;-2.18;100.00
41202;BME280;26936;50.524;8.684;2023-01-19T05:22:16;98199.78;;;-2.28;100.00
41202;BME280;26936;50.524;8.684;2023-01-19T05:24:41;98210.00;;;-2.18;100.00
41202;BME280;26936;50.524;8.684;2023-01-19T05:27:07;98209.63;;;-2.16;100.00
41202;BME280;26936;50.524;8.684;2023-01-19T05:29:32;98204.50;;;-2.28;100.00
41202;BME280;26936;50.524;8.684;2023-01-19T05:31:58;98209.25;;;-2.25;100.00
41202;BME280;26936;50.524;8.684;2023-01-19T05:34:23;98217.09;;;-2.06;100.00
41202;BME280;26936;50.524;8.684;2023-01-19T05:36:49;98221.00;;;-2.04;100.00
41202;BME280;26936;50.524;8.684;2023-01-19T05:39:14;98225.38;;;-2.06;100.00
41202;BME280;26936;50.524;8.684;2023-01-19T05:41:40;98226.16;;;-2.06;100.00
41202;BME280;26936;50.524;8.684;2023-01-19T05:44:06;98226.13;;;-1.99;100.00
41202;BME280;26936;50.524;8.684;2023-01-19T05:46:32;98229.22;;;-1.83;100.00
41202;BME280;26936;50.524;8.684;2023-01-19T05:48:57;98227.28;;;-1.86;100.00
41202;BME280;26936;50.524;8.684;2023-01-19T05:51:25;98229.66;;;-1.91;100.00
41202;BME280;26936;50.524;8.684;2023-01-19T05:53:51;98223.69;;;-1.76;100.00
41202;BME280;26936;50.524;8.684;2023-01-19T05:56:16;98227.25;;;-1.75;100.00
41202;BME280;26936;50.524;8.684;2023-01-19T05:58:41;98228.78;;;-1.67;100.00
41202;BME280;26936;50.524;8.684;2023-01-19T06:01:08;98232.31;;;-1.60;100.00
41202;BME280;26936;50.524;8.684;2023-01-19T06:03:35;98235.03;;;-1.49;100.00
41202;BME280;26936;50.524;8.684;2023-01-19T06:06:01;98242.50;;;-1.43;100.00
41202;BME280;26936;50.524;8.684;2023-01-19T06:08:27;98234.63;;;-1.44;100.00
41202;BME280;26936;50.524;8.684;2023-01-19T06:10:52;98240.50;;;-1.39;100.00
41202;BME280;26936;50.524;8.684;2023-01-19T06:13:18;98233.84;;;-1.45;100.00
41202;BME280;26936;50.524;8.684;2023-01-19T06:15:44;98245.25;;;-1.39;100.00
41202;BME280;26936;50.524;8.684;2023-01-19T06:18:10;98241.69;;;-1.32;100.00
41202;BME280;26936;50.524;8.684;2023-01-19T06:20:36;98244.06;;;-1.38;100.00
41202;BME280;26936;50.524;8.684;2023-01-19T06:23:01;98247.63;;;-1.41;100.00
41202;BME280;26936;50.524;8.684;2023-01-19T06:25:27;98246.03;;;-1.39;100.00
41202;BME280;26936;50.524;8.684;2023-01-19T06:27:53;98257.44;;;-1.33;100.00
41202;BME280;26936;50.524;8.684;2023-01-19T06:30:18;98255.44;;;-1.25;100.00
41202;BME280;26936;50.524;8.684;2023-01-19T06:32:44;98263.31;;;-1.24;100.00
41202;BME280;26936;50.524;8.684;2023-01-19T06:35:09;98267.28;;;-1.25;100.00
41202;BME280;26936;50.524;8.684;2023-01-19T06:37:35;98258.56;;;-1.13;100.00
41202;BME280;26936;50.524;8.684;2023-01-19T06:40:00;98258.88;;;-1.04;100.00
41202;BME280;26936;50.524;8.684;2023-01-19T06:42:26;98254.97;;;-1.06;100.00
41202;BME280;26936;50.524;8.684;2023-01-19T06:44:51;98261.31;;;-1.09;100.00
41202;BME280;26936;50.524;8.684;2023-01-19T06:47:16;98261.75;;;-1.21;100.00
41202;BME280;26936;50.524;8.684;2023-01-19T06:49:41;98263.78;;;-1.36;100.00
41202;BME280;26936;50.524;8.684;2023-01-19T06:52:08;98266.97;;;-1.41;100.00
41202;BME280;26936;50.524;8.684;2023-01-19T06:54:35;98266.16;;;-1.42;100.00
41202;BME280;26936;50.524;8.684;2023-01-19T06:57:00;98263.78;;;-1.36;100.00
41202;BME280;26936;50.524;8.684;2023-01-19T06:59:25;98268.06;;;-1.24;100.00
41202;BME280;26936;50.524;8.684;2023-01-19T07:01:51;98268.09;;;-1.35;100.00
41202;BME280;26936;50.524;8.684;2023-01-19T07:04:16;98261.00;;;-1.32;100.00
41202;BME280;26936;50.524;8.684;2023-01-19T07:06:41;98266.53;;;-1.29;100.00
41202;BME280;26936;50.524;8.684;2023-01-19T07:09:06;98251.09;;;-1.23;100.00
41202;BME280;26936;50.524;8.684;2023-01-19T07:11:34;98257.44;;;-1.29;100.00
41202;BME280;26936;50.524;8.684;2023-01-19T07:13:59;98256.19;;;-1.18;100.00
41202;BME280;26936;50.524;8.684;2023-01-19T07:16:25;98260.91;;;-1.11;100.00
41202;BME280;26936;50.524;8.684;2023-01-19T07:18:50;98262.06;;;-1.09;100.00
41202;BME280;26936;50.524;8.684;2023-01-19T07:21:16;98269.22;;;-1.15;100.00
41202;BME280;26936;50.524;8.684;2023-01-19T07:23:41;98262.88;;;-1.15;100.00
41202;BME280;26936;50.524;8.684;2023-01-19T07:26:08;98267.94;;;-0.96;100.00
41202;BME280;26936;50.524;8.684;2023-01-19T07:28:33;98262.41;;;-0.96;100.00
41202;BME280;26936;50.524;8.684;2023-01-19T07:30:59;98260.84;;;-1.04;100.00
41202;BME280;26936;50.524;8.684;2023-01-19T07:33:24;98259.97;;;-0.87;100.00
41202;BME280;26936;50.524;8.684;2023-01-19T07:35:51;98265.81;;;-0.78;100.00
41202;BME280;26936;50.524;8.684;2023-01-19T07:38:17;98265.44;;;-0.77;100.00
41202;BME280;26936;50.524;8.684;2023-01-19T07:40:44;98265.78;;;-0.68;100.00
41202;BME280;26936;50.524;8.684;2023-01-19T07:43:11;98263.03;;;-0.75;100.00
41202;BME280;26936;50.524;8.684;2023-01-19T07:45:37;98260.66;;;-0.73;100.00
41202;BME280;26936;50.524;8.684;2023-01-19T07:48:03;98264.13;;;-0.58;100.00
41202;BME280;26936;50.524;8.684;2023-01-19T07:50:29;98264.47;;;-0.53;100.00
41202;BME280;26936;50.524;8.684;2023-01-19T07:52:55;98263.22;;;-0.41;100.00
41202;BME280;26936;50.524;8.684;2023-01-19T07:55:22;98269.91;;;-0.42;100.00
41202;BME280;26936;50.524;8.684;2023-01-19T07:57:49;98267.41;;;-0.26;100.00
41202;BME280;26936;50.524;8.684;2023-01-19T08:00:18;98270.16;;;-0.23;100.00
41202;BME280;26936;50.524;8.684;2023-01-19T08:02:47;98274.50;;;-0.22;100.00
41202;BME280;26936;50.524;8.684;2023-01-19T08:05:17;98290.28;;;-0.15;100.00
41202;BME280;26936;50.524;8.684;2023-01-19T08:07:43;98291.41;;;-0.09;100.00
41202;BME280;26936;50.524;8.684;2023-01-19T08:10:10;98300.84;;;-0.07;100.00
41202;BME280;26936;50.524;8.684;2023-01-19T08:12:36;98295.31;;;-0.07;100.00
41202;BME280;26936;50.524;8.684;2023-01-19T08:15:01;98301.19;;;0.03;100.00
41202;BME280;26936;50.524;8.684;2023-01-19T08:17:27;98300.31;;;0.13;100.00
41202;BME280;26936;50.524;8.684;2023-01-19T08:19:52;98297.16;;;0.11;100.00
41202;BME280;26936;50.524;8.684;2023-01-19T08:22:17;98296.31;;;0.14;100.00
41202;BME280;26936;50.524;8.684;2023-01-19T08:24:43;98292.44;;;0.45;100.00
41202;BME280;26936;50.524;8.684;2023-01-19T08:27:08;98296.72;;;0.53;100.00
41202;BME280;26936;50.524;8.684;2023-01-19T08:29:36;98294.41;;;0.81;100.00
41202;BME280;26936;50.524;8.684;2023-01-19T08:32:01;98304.00;;;0.73;100.00
41202;BME280;26936;50.524;8.684;2023-01-19T08:34:28;98298.72;;;0.86;100.00
41202;BME280;26936;50.524;8.684;2023-01-19T08:36:55;98309.53;;;1.07;99.23
41202;BME280;26936;50.524;8.684;2023-01-19T08:39:20;98306.94;;;1.23;98.12
41202;BME280;26936;50.524;8.684;2023-01-19T08:41:48;98301.41;;;1.50;95.85
41202;BME280;26936;50.524;8.684;2023-01-19T08:44:13;98302.47;;;1.59;95.25
41202;BME280;26936;50.524;8.684;2023-01-19T08:46:39;98305.28;;;1.82;94.08
41202;BME280;26936;50.524;8.684;2023-01-19T08:49:05;98302.31;;;1.70;94.36
41202;BME280;26936;50.524;8.684;2023-01-19T08:51:30;98297.56;;;1.67;94.44
41202;BME280;26936;50.524;8.684;2023-01-19T08:53:56;98302.13;;;1.54;94.86
41202;BME280;26936;50.524;8.684;2023-01-19T08:56:21;98294.28;;;1.49;95.70
41202;BME280;26936;50.524;8.684;2023-01-19T08:58:46;98297.84;;;1.49;96.19
41202;BME280;26936;50.524;8.684;2023-01-19T09:01:12;98305.75;;;1.51;96.08
41202;BME280;26936;50.524;8.684;2023-01-19T09:03:39;98300.25;;;1.47;95.77
41202;BME280;26936;50.524;8.684;2023-01-19T09:06:07;98306.22;;;1.46;95.77
41202;BME280;26936;50.524;8.684;2023-01-19T09:08:33;98311.00;;;1.45;96.43
41202;BME280;26936;50.524;8.684;2023-01-19T09:10:58;98309.78;;;1.46;96.42
41202;BME280;26936;50.524;8.684;2023-01-19T09:13:24;98318.91;;;1.47;96.94
41202;BME280;26936;50.524;8.684;2023-01-19T09:15:49;98325.69;;;1.42;96.77
41202;BME280;26936;50.524;8.684;2023-01-19T09:18:17;98322.91;;;1.42;96.71
41202;BME280;26936;50.524;8.684;2023-01-19T09:20:44;98323.75;;;1.39;98.12
41202;BME280;26936;50.524;8.684;2023-01-19T09:23:11;98321.72;;;1.43;97.71
41202;BME280;26936;50.524;8.684;2023-01-19T09:25:37;98332.34;;;1.48;97.88
41202;BME280;26936;50.524;8.684;2023-01-19T09:28:04;98327.53;;;1.52;97.67
41202;BME280;26936;50.524;8.684;2023-01-19T09:30:30;98330.34;;;1.49;98.26
41202;BME280;26936;50.524;8.684;2023-01-19T09:33:01;98329.06;;;1.57;98.02
41202;BME280;26936;50.524;8.684;2023-01-19T09:35:26;98327.84;;;1.58;98.86
41202;BME280;26936;50.524;8.684;2023-01-19T09:37:51;98334.66;;;1.53;100.00
41202;BME280;26936;50.524;8.684;2023-01-19T09:40:17;98331.94;;;1.50;100.00
41202;BME280;26936;50.524;8.684;2023-01-19T09:42:47;98339.50;;;1.46;100.00
41202;BME280;26936;50.524;8.684;2023-01-19T09:45:30;98342.69;;;1.44;100.00
41202;BME280;26936;50.524;8.684;2023-01-19T09:47:59;98349.56;;;1.36;100.00
41202;BME280;26936;50.524;8.684;2023-01-19T09:50:27;98351.06;;;1.40;100.00
41202;BME280;26936;50.524;8.684;2023-01-19T09:53:10;98354.38;;;1.32;100.00
41202;BME280;26936;50.524;8.684;2023-01-19T09:55:39;98359.94;;;1.32;100.00
41202;BME280;26936;50.524;8.684;2023-01-19T09:58:11;98359.25;;;1.21;100.00
41202;BME280;26936;50.524;8.684;2023-01-19T10:00:38;98351.69;;;1.25;100.00
41202;BME280;26936;50.524;8.684;2023-01-19T10:03:13;98356.81;;;1.26;100.00
41202;BME280;26936;50.524;8.684;2023-01-19T10:05:52;98352.91;;;1.24;100.00
41202;BME280;26936;50.524;8.684;2023-01-19T10:08:46;98347.81;;;1.19;100.00
41202;BME280;26936;50.524;8.684;2023-01-19T10:11:29;98352.75;;;1.34;100.00
41202;BME280;26936;50.524;8.684;2023-01-19T10:13:58;98347.50;;;1.44;100.00
41202;BME280;26936;50.524;8.684;2023-01-19T10:16:41;98346.28;;;1.45;100.00
41202;BME280;26936;50.524;8.684;2023-01-19T10:19:29;98345.59;;;1.64;100.00
41202;BME280;26936;50.524;8.684;2023-01-19T10:21:56;98356.69;;;1.64;100.00
41202;BME280;26936;50.524;8.684;2023-01-19T10:24:31;98346.13;;;1.82;100.00
41202;BME280;26936;50.524;8.684;2023-01-19T10:26:59;98346.06;;;1.85;100.00
41202;BME280;26936;50.524;8.684;2023-01-19T10:29:27;98344.72;;;1.97;100.00
41202;BME280;26936;50.524;8.684;2023-01-19T10:32:03;98342.97;;;2.06;100.00
41202;BME280;26936;50.524;8.684;2023-01-19T10:34:30;98344.69;;;2.23;100.00
41202;BME280;26936;50.524;8.684;2023-01-19T10:39:55;98342.47;;;2.57;100.00
41202;BME280;26936;50.524;8.684;2023-01-19T10:42:21;98348.03;;;2.57;100.00
41202;BME280;26936;50.524;8.684;2023-01-19T10:44:48;98342.75;;;2.63;100.00
41202;BME280;26936;50.524;8.684;2023-01-19T10:47:16;98347.13;;;2.64;100.00
41202;BME280;26936;50.524;8.684;2023-01-19T10:49:42;98347.06;;;2.67;100.00
41202;BME280;26936;50.524;8.684;2023-01-19T10:52:30;98347.84;;;2.68;100.00
41202;BME280;26936;50.524;8.684;2023-01-19T10:54:58;98351.34;;;2.72;100.00
41202;BME280;26936;50.524;8.684;2023-01-19T10:57:33;98341.75;;;2.53;100.00
41202;BME280;26936;50.524;8.684;2023-01-19T11:00:01;98350.63;;;2.45;100.00
41202;BME280;26936;50.524;8.684;2023-01-19T11:02:28;98341.03;;;2.49;100.00
41202;BME280;26936;50.524;8.684;2023-01-19T11:04:58;98344.41;;;2.60;100.00
41202;BME280;26936;50.524;8.684;2023-01-19T11:07:31;98349.59;;;2.58;100.00
41202;BME280;26936;50.524;8.684;2023-01-19T11:10:11;98346.59;;;2.49;100.00
41202;BME280;26936;50.524;8.684;2023-01-19T11:12:41;98350.34;;;2.39;100.00
41202;BME280;26936;50.524;8.684;2023-01-19T11:15:35;98349.66;;;2.32;100.00
41202;BME280;26936;50.524;8.684;2023-01-19T11:18:05;98348.53;;;2.29;100.00
41202;BME280;26936;50.524;8.684;2023-01-19T11:20:49;98346.13;;;2.31;100.00
41202;BME280;26936;50.524;8.684;2023-01-19T11:23:26;98343.63;;;2.37;100.00
41202;BME280;26936;50.524;8.684;2023-01-19T11:25:53;98340.91;;;2.56;100.00
41202;BME280;26936;50.524;8.684;2023-01-19T11:28:30;98345.59;;;2.59;100.00
41202;BME280;26936;50.524;8.684;2023-01-19T11:36:14;98345.06;;;2.68;100.00
41202;BME280;26936;50.524;8.684;2023-01-19T11:38:45;98353.16;;;2.59;100.00
41202;BME280;26936;50.524;8.684;2023-01-19T11:41:16;98364.47;;;2.48;100.00
41202;BME280;26936;50.524;8.684;2023-01-19T11:43:43;98355.75;;;2.46;100.00
41202;BME280;26936;50.524;8.684;2023-01-19T11:46:10;98352.66;;;2.44;100.00
41202;BME280;26936;50.524;8.684;2023-01-19T11:48:41;98348.34;;;2.40;100.00
41202;BME280;26936;50.524;8.684;2023-01-19T11:51:12;98352.69;;;2.41;100.00
41202;BME280;26936;50.524;8.684;2023-01-19T11:53:42;98355.00;;;2.23;100.00
41202;BME280;26936;50.524;8.684;2023-01-19T11:56:12;98356.59;;;2.20;100.00
41202;BME280;26936;50.524;8.684;2023-01-19T11:58:41;98351.94;;;2.14;100.00
41202;BME280;26936;50.524;8.684;2023-01-19T12:01:29;98361.56;;;2.09;100.00
41202;BME280;26936;50.524;8.684;2023-01-19T12:06:29;98356.69;;;2.17;100.00
41202;BME280;26936;50.524;8.684;2023-01-19T12:08:58;98359.53;;;2.13;100.00
41202;BME280;26936;50.524;8.684;2023-01-19T12:11:30;98360.84;;;2.05;100.00
41202;BME280;26936;50.524;8.684;2023-01-19T12:13:56;98359.00;;;1.95;100.00
41202;BME280;26936;50.524;8.684;2023-01-19T12:16:26;98361.72;;;1.99;100.00
41202;BME280;26936;50.524;8.684;2023-01-19T12:18:59;98367.28;;;1.99;100.00
41202;BME280;26936;50.524;8.684;2023-01-19T12:21:26;98361.25;;;2.04;100.00
41202;BME280;26936;50.524;8.684;2023-01-19T12:24:11;98362.69;;;1.89;100.00
41202;BME280;26936;50.524;8.684;2023-01-19T12:26:57;98362.25;;;1.90;100.00
41202;BME280;26936;50.524;8.684;2023-01-19T12:29:26;98362.72;;;1.85;100.00
41202;BME280;26936;50.524;8.684;2023-01-19T12:34:44;98359.94;;;1.85;100.00
41202;BME280;26936;50.524;8.684;2023-01-19T12:37:40;98368.69;;;1.84;100.00
41202;BME280;26936;50.524;8.684;2023-01-19T12:40:24;98361.59;;;1.83;100.00
41202;BME280;26936;50.524;8.684;2023-01-19T12:42:59;98359.72;;;1.76;100.00
41202;BME280;26936;50.524;8.684;2023-01-19T12:45:31;98351.56;;;1.89;100.00
41202;BME280;26936;50.524;8.684;2023-01-19T12:47:58;98360.28;;;1.91;100.00
41202;BME280;26936;50.524;8.684;2023-01-19T12:50:24;98350.72;;;1.92;100.00
41202;BME280;26936;50.524;8.684;2023-01-19T12:52:57;98355.44;;;1.95;100.00
41202;BME280;26936;50.524;8.684;2023-01-19T12:55:30;98363.34;;;1.96;100.00
41202;BME280;26936;50.524;8.684;2023-01-19T12:58:13;98362.94;;;1.98;100.00
41202;BME280;26936;50.524;8.684;2023-01-19T13:00:41;98363.34;;;1.96;100.00
41202;BME280;26936;50.524;8.684;2023-01-19T13:13:39;98364.72;;;1.85;100.00
41202;BME280;26936;50.524;8.684;2023-01-19T13:21:34;98368.53;;;1.94;100.00
41202;BME280;26936;50.524;8.684;2023-01-19T13:24:07;98371.31;;;1.94;100.00
41202;BME280;26936;50.524;8.684;2023-01-19T13:26:34;98367.25;;;2.02;100.00
41202;BME280;26936;50.524;8.684;2023-01-19T13:29:09;98369.50;;;2.07;100.00
41202;BME280;26936;50.524;8.684;2023-01-19T13:31:37;98376.72;;;2.05;100.00
41202;BME280;26936;50.524;8.684;2023-01-19T13:34:10;98375.88;;;2.08;100.00
41202;BME280;26936;50.524;8.684;2023-01-19T13:36:38;98379.44;;;2.08;100.00
41202;BME280;26936;50.524;8.684;2023-01-19T13:39:15;98368.63;;;2.14;100.00
41202;BME280;26936;50.524;8.684;2023-01-19T13:41:42;98383.25;;;2.18;100.00
41202;BME280;26936;50.524;8.684;2023-01-19T13:46:46;98380.16;;;2.12;100.00
41202;BME280;26936;50.524;8.684;2023-01-19T13:52:05;98380.22;;;2.09;100.00
41202;BME280;26936;50.524;8.684;2023-01-19T13:54:30;98377.31;;;2.16;100.00